Time;durP1;ratioP1;P1;durP2;ratioP2;P2;SDS_P1;SDS_P2;PMS_P1;PMS_P2;Temp;Humidity;BMP_temperature;BMP_pressure;BME280_temperature;BME280_humidity;BME280_pressure;Samples;Min_cycle;Max_cycle;Signal;HPM_P1;HPM_P2
2022/08/08 00:00:56;;;;;;;7.43;6.72;;;;;;;;;;5014594;28;20360;-85
2022/08/08 00:03:29;;;;;;;8.18;6.90;;;;;;;;;;5005060;28;20064;-85
2022/08/08 00:06:10;;;;;;;8.82;6.53;;;;;;;;;;5016788;28;20048;-85
2022/08/08 00:08:57;;;;;;;7.95;6.60;;;;;;;;;;5024417;28;20378;-86
2022/08/08 00:11:41;;;;;;;8.52;7.05;;;;;;;;;;5010712;28;20025;-86
2022/08/08 00:14:30;;;;;;;8.15;7.07;;;;;;;;;;4995221;28;20022;-85
2022/08/08 00:17:27;;;;;;;8.23;6.88;;;;;;;;;;5014558;28;20429;-86
2022/08/08 00:20:05;;;;;;;8.98;6.88;;;;;;;;;;5017277;28;20041;-86
2022/08/08 00:22:41;;;;;;;9.65;7.10;;;;;;;;;;5011386;28;20030;-85
2022/08/08 00:25:12;;;;;;;8.55;6.75;;;;;;;;;;5014993;28;20028;-85
2022/08/08 00:27:39;;;;;;;7.75;6.70;;;;;;;;;;5020898;28;20037;-85
2022/08/08 00:30:08;;;;;;;8.75;7.30;;;;;;;;;;5017244;28;20112;-85
2022/08/08 00:32:45;;;;;;;8.40;6.63;;;;;;;;;;5016599;28;20042;-85
2022/08/08 00:35:23;;;;;;;7.90;7.10;;;;;;;;;;5019115;28;20112;-86
2022/08/08 00:38:06;;;;;;;9.73;6.70;;;;;;;;;;5002289;28;20029;-86
2022/08/08 00:40:53;;;;;;;8.35;7.15;;;;;;;;;;5024600;28;20025;-86
2022/08/08 00:43:51;;;;;;;7.03;6.20;;;;;;;;;;5002845;28;20047;-85
2022/08/08 00:46:57;;;;;;;9.63;7.13;;;;;;;;;;5004519;28;20077;-86
2022/08/08 00:49:34;;;;;;;8.70;6.85;;;;;;;;;;5000373;28;20030;-85
2022/08/08 00:52:33;;;;;;;7.63;6.32;;;;;;;;;;5016661;28;20467;-86
2022/08/08 00:55:21;;;;;;;9.80;7.28;;;;;;;;;;5002166;28;20542;-86
2022/08/08 00:58:08;;;;;;;7.28;6.47;;;;;;;;;;5019411;28;20025;-86
2022/08/08 01:01:15;;;;;;;8.63;6.68;;;;;;;;;;5006767;28;20028;-85
2022/08/08 01:03:59;;;;;;;8.68;6.72;;;;;;;;;;5019477;28;20453;-85
2022/08/08 01:07:07;;;;;;;7.68;6.57;;;;;;;;;;5004643;28;20496;-85
2022/08/08 01:10:02;;;;;;;8.75;6.57;;;;;;;;;;5013964;28;20037;-86
2022/08/08 01:12:53;;;;;;;7.93;6.88;;;;;;;;;;5021000;28;20101;-85
2022/08/08 01:15:19;;;;;;;10.15;7.10;;;;;;;;;;5016248;28;20096;-86
2022/08/08 01:18:02;;;;;;;8.15;7.05;;;;;;;;;;5016812;28;20057;-85
2022/08/08 01:20:49;;;;;;;11.55;6.82;;;;;;;;;;5016517;28;20026;-86
2022/08/08 01:23:26;;;;;;;7.55;6.75;;;;;;;;;;5007826;28;20088;-86
2022/08/08 01:26:37;;;;;;;7.65;6.45;;;;;;;;;;5008251;28;20152;-86
2022/08/08 01:29:30;;;;;;;8.52;6.72;;;;;;;;;;5010053;28;20650;-86
2022/08/08 01:31:55;;;;;;;8.70;6.82;;;;;;;;;;5018823;28;20044;-85
2022/08/08 01:34:36;;;;;;;7.68;6.32;;;;;;;;;;5016776;28;20478;-85
2022/08/08 01:37:38;;;;;;;8.43;6.28;;;;;;;;;;5022428;28;20402;-85
2022/08/08 01:40:25;;;;;;;9.38;6.43;;;;;;;;;;5014817;28;20386;-85
2022/08/08 01:43:05;;;;;;;8.27;6.60;;;;;;;;;;5017540;28;20482;-86
2022/08/08 01:45:30;;;;;;;;;;;;;;;;;;5011790;28;20037;-85
2022/08/08 01:48:34;;;;;;;7.75;6.45;;;;;;;;;;5012090;28;19917;-86
2022/08/08 01:51:05;;;;;;;7.60;6.30;;;;;;;;;;4970512;28;20042;-85
2022/08/08 01:53:55;;;;;;;7.70;6.60;;;;;;;;;;5001129;28;20030;-85
2022/08/08 01:56:31;;;;;;;7.97;6.38;;;;;;;;;;4992903;28;21288;-85
2022/08/08 01:59:06;;;;;;;8.20;7.05;;;;;;;;;;5005555;28;20022;-86
2022/08/08 02:02:05;;;;;;;7.90;6.22;;;;;;;;;;5005983;28;20482;-86
2022/08/08 02:04:39;;;;;;;8.40;6.73;;;;;;;;;;5003810;28;20477;-85
2022/08/08 02:08:15;;;;;;;8.25;6.60;;;;;;;;;;5009158;28;20160;-85
2022/08/08 02:10:59;;;;;;;10.20;8.02;;;;;;;;;;4895952;29;20534;-86
2022/08/08 02:13:31;;;;;;;9.52;7.78;;;;;;;;;;4944897;29;20115;-85
2022/08/08 02:16:08;;;;;;;7.80;6.90;;;;;;;;;;4989075;28;20484;-86
2022/08/08 02:18:50;;;;;;;9.68;7.75;;;;;;;;;;5008740;28;20025;-86
2022/08/08 02:24:23;;;;;;;9.05;7.25;;;;;;;;;;5008427;28;20025;-85
2022/08/08 02:27:03;;;;;;;8.90;7.30;;;;;;;;;;5010178;28;20046;-86
2022/08/08 02:29:39;;;;;;;8.98;7.25;;;;;;;;;;5006678;28;20164;-85
2022/08/08 02:32:14;;;;;;;10.82;7.25;;;;;;;;;;4993991;28;20494;-85
2022/08/08 02:34:40;;;;;;;8.35;7.47;;;;;;;;;;5005335;28;20018;-85
2022/08/08 02:37:21;;;;;;;9.70;6.85;;;;;;;;;;4994082;28;20030;-85
2022/08/08 02:40:05;;;;;;;8.18;6.68;;;;;;;;;;5006021;28;20029;-87
2022/08/08 02:43:04;;;;;;;7.00;6.30;;;;;;;;;;4992343;28;20092;-85
2022/08/08 02:45:41;;;;;;;8.05;7.25;;;;;;;;;;5019132;28;20033;-88
2022/08/08 02:48:21;;;;;;;10.10;7.60;;;;;;;;;;5021937;28;20104;-87
2022/08/08 02:51:21;;;;;;;6.90;6.20;;;;;;;;;;5014780;28;20409;-86
2022/08/08 02:54:08;;;;;;;11.52;7.85;;;;;;;;;;5002895;28;20083;-85
2022/08/08 02:57:02;;;;;;;7.38;6.38;;;;;;;;;;5016525;28;20079;-87
2022/08/08 03:00:12;;;;;;;8.27;7.22;;;;;;;;;;5025020;28;20022;-88
2022/08/08 03:02:49;;;;;;;;;;;;;;;;;;5022268;28;20386;-86
2022/08/08 03:05:27;;;;;;;7.88;6.97;;;;;;;;;;5021683;28;19924;-86
2022/08/08 03:08:14;;;;;;;8.15;6.78;;;;;;;;;;5004667;28;20414;-86
2022/08/08 03:11:08;;;;;;;10.25;7.25;;;;;;;;;;5019025;28;20029;-86
2022/08/08 03:14:11;;;;;;;8.63;6.63;;;;;;;;;;4997903;28;20497;-85
2022/08/08 03:16:58;;;;;;;10.40;7.25;;;;;;;;;;5003044;28;20073;-85
2022/08/08 03:20:00;;;;;;;8.80;7.03;;;;;;;;;;5024691;28;20127;-85
2022/08/08 03:22:26;;;;;;;8.63;7.07;;;;;;;;;;4988806;28;20033;-85
2022/08/08 03:24:52;;;;;;;10.00;6.75;;;;;;;;;;5019465;28;20030;-85
2022/08/08 03:27:28;;;;;;;8.25;6.60;;;;;;;;;;5021885;28;20025;-86
2022/08/08 03:30:06;;;;;;;7.70;6.30;;;;;;;;;;5000903;28;20400;-86
2022/08/08 03:35:18;;;;;;;9.73;6.55;;;;;;;;;;5025101;28;20044;-86
2022/08/08 03:37:45;;;;;;;8.45;7.18;;;;;;;;;;5018165;28;20029;-85
2022/08/08 03:40:10;;;;;;;8.85;7.15;;;;;;;;;;5015681;28;20046;-85
2022/08/08 03:42:37;;;;;;;8.10;7.20;;;;;;;;;;5023555;28;20037;-85
2022/08/08 03:45:15;;;;;;;13.85;7.55;;;;;;;;;;5017856;28;20065;-85
2022/08/08 03:47:40;;;;;;;8.60;6.95;;;;;;;;;;5017752;28;20029;-85
2022/08/08 03:50:15;;;;;;;8.27;7.07;;;;;;;;;;5023278;28;20030;-85
2022/08/08 03:52:41;;;;;;;9.23;7.00;;;;;;;;;;5019969;28;20058;-86
2022/08/08 03:55:16;;;;;;;9.05;7.05;;;;;;;;;;5024071;28;20044;-86
2022/08/08 03:57:54;;;;;;;13.65;7.28;;;;;;;;;;5016356;28;20025;-85
2022/08/08 04:00:23;;;;;;;7.38;6.55;;;;;;;;;;5018182;28;20044;-85
2022/08/08 04:03:02;;;;;;;10.52;6.93;;;;;;;;;;5021698;28;20394;-85
2022/08/08 04:05:33;;;;;;;6.95;5.90;;;;;;;;;;5009563;28;20480;-85
2022/08/08 04:08:00;;;;;;;7.60;6.57;;;;;;;;;;5016519;28;20033;-84
2022/08/08 04:10:27;;;;;;;7.82;6.32;;;;;;;;;;5018474;28;20367;-85
2022/08/08 04:12:53;;;;;;;6.85;6.15;;;;;;;;;;5019113;28;20025;-85
2022/08/08 04:15:19;;;;;;;8.38;6.30;;;;;;;;;;5022354;28;20024;-85
2022/08/08 04:17:45;;;;;;;7.97;6.97;;;;;;;;;;5021592;28;20029;-85
2022/08/08 04:20:10;;;;;;;7.93;6.60;;;;;;;;;;5026646;28;20036;-85
2022/08/08 04:22:36;;;;;;;7.35;6.55;;;;;;;;;;4999561;28;20022;-85
2022/08/08 04:25:02;;;;;;;7.25;6.07;;;;;;;;;;5000967;28;20381;-85
2022/08/08 04:27:28;;;;;;;8.93;6.55;;;;;;;;;;5016230;28;20025;-84
2022/08/08 04:29:54;;;;;;;9.85;8.80;;;;;;;;;;5023035;28;20389;-85
2022/08/08 04:32:19;;;;;;;9.93;7.85;;;;;;;;;;5024878;28;20061;-85
2022/08/08 04:34:45;;;;;;;9.48;7.57;;;;;;;;;;5019911;28;20022;-85
2022/08/08 04:37:11;;;;;;;9.25;7.40;;;;;;;;;;5018846;28;20075;-86
2022/08/08 04:39:37;;;;;;;7.93;6.80;;;;;;;;;;5016509;28;20026;-85
2022/08/08 04:42:03;;;;;;;10.80;6.95;;;;;;;;;;5024346;28;20034;-87
2022/08/08 04:44:29;;;;;;;8.82;6.85;;;;;;;;;;5021311;28;20044;-87
2022/08/08 04:46:54;;;;;;;8.85;6.78;;;;;;;;;;5009065;28;20141;-87
2022/08/08 04:49:20;;;;;;;10.13;6.65;;;;;;;;;;5026423;28;20030;-85
2022/08/08 04:51:45;;;;;;;8.82;7.00;;;;;;;;;;5028601;28;20029;-85
2022/08/08 04:54:11;;;;;;;8.88;7.72;;;;;;;;;;5017398;28;20414;-83
2022/08/08 04:56:37;;;;;;;9.68;7.20;;;;;;;;;;5025818;28;20030;-85
2022/08/08 04:59:02;;;;;;;12.15;9.00;;;;;;;;;;5021294;28;20037;-84
2022/08/08 05:01:28;;;;;;;19.65;16.30;;;;;;;;;;5024248;28;20481;-84
2022/08/08 05:03:53;;;;;;;11.50;9.10;;;;;;;;;;5022352;28;20033;-84
2022/08/08 05:06:18;;;;;;;11.07;9.02;;;;;;;;;;5025592;28;20026;-84
2022/08/08 05:08:45;;;;;;;10.23;8.70;;;;;;;;;;5029023;28;20034;-85
2022/08/08 05:11:12;;;;;;;10.52;8.45;;;;;;;;;;5017586;28;20080;-85
2022/08/08 05:13:42;;;;;;;9.23;7.25;;;;;;;;;;5007843;28;20497;-86
2022/08/08 05:16:07;;;;;;;8.48;7.57;;;;;;;;;;5018249;28;20029;-85
2022/08/08 05:18:35;;;;;;;8.85;7.95;;;;;;;;;;5028980;28;20031;-83
2022/08/08 05:21:01;;;;;;;9.60;8.00;;;;;;;;;;5020100;28;20084;-83
2022/08/08 05:23:27;;;;;;;12.18;7.78;;;;;;;;;;5016484;28;20042;-84
2022/08/08 05:25:52;;;;;;;35.95;25.52;;;;;;;;;;5017031;28;20615;-82
2022/08/08 05:28:18;;;;;;;15.50;12.32;;;;;;;;;;5022455;28;20496;-83
2022/08/08 05:30:43;;;;;;;18.60;12.70;;;;;;;;;;5027186;28;20068;-83
2022/08/08 05:33:09;;;;;;;12.57;8.80;;;;;;;;;;5023850;28;20030;-82
2022/08/08 05:35:34;;;;;;;17.73;9.77;;;;;;;;;;5017573;28;20065;-83
2022/08/08 05:38:04;;;;;;;14.13;10.55;;;;;;;;;;5019052;28;20025;-85
2022/08/08 05:40:31;;;;;;;15.05;10.38;;;;;;;;;;5004970;28;20025;-85
2022/08/08 05:43:09;;;;;;;12.82;9.27;;;;;;;;;;5028875;28;20517;-85
2022/08/08 05:45:35;;;;;;;10.73;9.10;;;;;;;;;;5005483;28;20450;-84
2022/08/08 05:48:03;;;;;;;13.77;9.43;;;;;;;;;;5022160;28;20401;-87
2022/08/08 05:50:30;;;;;;;12.10;8.70;;;;;;;;;;5004936;28;20072;-85
2022/08/08 05:52:55;;;;;;;9.90;8.70;;;;;;;;;;5010048;28;20013;-84
2022/08/08 05:55:21;;;;;;;9.63;8.10;;;;;;;;;;5005117;28;20586;-85
2022/08/08 05:57:50;;;;;;;13.88;8.50;;;;;;;;;;5006492;28;20034;-85
2022/08/08 06:00:16;;;;;;;8.32;7.47;;;;;;;;;;5009732;28;20032;-84
2022/08/08 06:05:32;;;;;;;14.05;9.93;;;;;;;;;;5019576;28;20083;-86
2022/08/08 06:07:58;;;;;;;9.60;8.15;;;;;;;;;;5009386;28;20041;-84
2022/08/08 06:10:28;;;;;;;10.73;8.60;;;;;;;;;;5013297;28;20112;-84
2022/08/08 06:12:54;;;;;;;12.13;8.63;;;;;;;;;;5011191;28;20085;-84
2022/08/08 06:15:20;;;;;;;33.60;25.33;;;;;;;;;;5003958;28;20029;-84
2022/08/08 06:17:46;;;;;;;26.00;18.55;;;;;;;;;;5016883;28;20041;-83
2022/08/08 06:20:12;;;;;;;14.30;11.45;;;;;;;;;;5011632;28;20034;-84
2022/08/08 06:22:38;;;;;;;10.50;8.40;;;;;;;;;;4991328;28;20029;-83
2022/08/08 06:25:05;;;;;;;10.38;7.53;;;;;;;;;;5012061;28;20030;-83
2022/08/08 06:28:06;;;;;;;15.10;7.40;;;;;;;;;;5019128;28;20040;-85
2022/08/08 06:30:33;;;;;;;13.05;8.10;;;;;;;;;;4990178;28;20073;-84
2022/08/08 06:32:59;;;;;;;10.15;8.40;;;;;;;;;;5007757;28;20036;-84
2022/08/08 06:35:25;;;;;;;10.05;8.43;;;;;;;;;;5002823;28;20466;-83
2022/08/08 06:37:52;;;;;;;10.15;7.85;;;;;;;;;;5020889;28;20033;-83
2022/08/08 06:40:19;;;;;;;11.05;8.90;;;;;;;;;;5008921;28;20072;-83
2022/08/08 06:42:58;;;;;;;17.65;14.50;;;;;;;;;;5012307;28;20021;-82
2022/08/08 06:45:25;;;;;;;21.00;15.48;;;;;;;;;;5005459;28;20076;-82
2022/08/08 06:47:51;;;;;;;10.75;8.55;;;;;;;;;;5003343;28;20025;-84
2022/08/08 06:50:17;;;;;;;8.80;7.90;;;;;;;;;;5003096;28;20025;-84
2022/08/08 06:52:43;;;;;;;9.05;6.63;;;;;;;;;;5003915;28;20426;-85
2022/08/08 06:55:09;;;;;;;8.77;7.57;;;;;;;;;;5005141;28;20057;-85
2022/08/08 06:57:35;;;;;;;10.18;7.38;;;;;;;;;;5007447;28;20029;-84
2022/08/08 07:00:04;;;;;;;10.90;7.95;;;;;;;;;;5003812;28;20040;-84
2022/08/08 07:02:31;;;;;;;7.60;6.70;;;;;;;;;;5005417;28;20474;-82
2022/08/08 07:05:13;;;;;;;9.73;6.68;;;;;;;;;;5010329;28;20364;-83
2022/08/08 07:07:51;;;;;;;7.60;6.22;;;;;;;;;;4991540;28;20044;-83
2022/08/08 07:10:21;;;;;;;8.38;6.20;;;;;;;;;;4994590;28;20026;-83
2022/08/08 07:12:54;;;;;;;8.63;6.43;;;;;;;;;;4999921;28;20109;-82
2022/08/08 07:15:34;;;;;;;9.02;6.60;;;;;;;;;;4984918;28;20022;-81
2022/08/08 07:18:05;;;;;;;11.02;6.47;;;;;;;;;;4992903;28;20049;-81
2022/08/08 07:20:35;;;;;;;8.48;5.80;;;;;;;;;;5000907;28;20033;-83
2022/08/08 07:23:16;;;;;;;7.28;6.57;;;;;;;;;;5003797;28;20080;-83
2022/08/08 07:25:44;;;;;;;10.63;5.85;;;;;;;;;;4985403;28;20068;-81
2022/08/08 07:28:14;;;;;;;10.02;5.55;;;;;;;;;;4998478;28;20022;-83
2022/08/08 07:30:42;;;;;;;8.63;6.25;;;;;;;;;;4995134;28;20603;-84
2022/08/08 07:33:10;;;;;;;7.65;5.95;;;;;;;;;;4989348;28;20041;-83
2022/08/08 07:35:37;;;;;;;6.72;5.47;;;;;;;;;;5001505;28;20021;-82
2022/08/08 07:38:04;;;;;;;8.07;5.80;;;;;;;;;;4999026;28;20109;-82
2022/08/08 07:40:31;;;;;;;7.93;5.32;;;;;;;;;;5001691;28;20030;-81
2022/08/08 07:42:57;;;;;;;14.57;4.95;;;;;;;;;;5000079;28;20022;-83
2022/08/08 07:45:23;;;;;;;5.95;4.38;;;;;;;;;;5011707;28;20034;-82
2022/08/08 07:47:49;;;;;;;7.22;5.57;;;;;;;;;;5014242;28;20386;-82
2022/08/08 07:50:15;;;;;;;7.28;4.75;;;;;;;;;;5004570;28;20021;-83
2022/08/08 07:52:49;;;;;;;8.00;4.68;;;;;;;;;;4999166;28;20065;-84
2022/08/08 07:55:22;;;;;;;5.47;4.15;;;;;;;;;;5002431;28;20100;-83
2022/08/08 07:58:03;;;;;;;5.45;4.63;;;;;;;;;;5011557;28;20029;-81
2022/08/08 08:00:37;;;;;;;6.95;4.95;;;;;;;;;;5014274;28;20068;-82
2022/08/08 08:03:11;;;;;;;6.57;5.20;;;;;;;;;;5003649;28;20025;-80
2022/08/08 08:05:45;;;;;;;6.85;5.13;;;;;;;;;;4993546;28;20033;-82
2022/08/08 08:08:25;;;;;;;7.43;5.20;;;;;;;;;;5010588;28;20516;-83
2022/08/08 08:10:54;;;;;;;5.72;4.53;;;;;;;;;;5004237;28;20453;-81
2022/08/08 08:13:35;;;;;;;9.45;5.20;;;;;;;;;;5017738;28;20038;-81
2022/08/08 08:16:04;;;;;;;12.45;5.32;;;;;;;;;;5022437;28;20033;-81
2022/08/08 08:18:41;;;;;;;8.32;5.00;;;;;;;;;;5018645;28;20065;-80
2022/08/08 08:21:08;;;;;;;7.03;4.65;;;;;;;;;;4999784;28;20019;-81
2022/08/08 08:23:34;;;;;;;5.50;4.07;;;;;;;;;;5012967;28;20025;-80
2022/08/08 08:26:00;;;;;;;4.85;3.20;;;;;;;;;;5009560;28;20375;-81
2022/08/08 08:28:26;;;;;;;8.70;3.60;;;;;;;;;;5015793;28;20029;-80
2022/08/08 08:30:55;;;;;;;5.50;3.35;;;;;;;;;;5021626;28;20026;-83
2022/08/08 08:33:21;;;;;;;4.68;3.78;;;;;;;;;;5006346;28;20419;-81
2022/08/08 08:35:48;;;;;;;5.90;3.97;;;;;;;;;;5011522;28;20030;-84
2022/08/08 08:38:13;;;;;;;4.93;3.63;;;;;;;;;;5007104;28;20031;-82
2022/08/08 08:40:39;;;;;;;9.30;4.85;;;;;;;;;;5013707;28;20032;-80
2022/08/08 08:43:04;;;;;;;8.18;4.72;;;;;;;;;;5017203;28;20058;-78
2022/08/08 08:45:30;;;;;;;5.10;3.85;;;;;;;;;;4999593;28;20041;-81
2022/08/08 08:47:56;;;;;;;6.22;4.20;;;;;;;;;;4992619;28;20022;-84
2022/08/08 08:50:23;;;;;;;5.53;4.15;;;;;;;;;;5014150;28;20033;-82
2022/08/08 08:52:49;;;;;;;7.10;4.28;;;;;;;;;;5022355;28;20104;-81
2022/08/08 08:55:17;;;;;;;10.55;4.70;;;;;;;;;;5016244;28;20062;-82
2022/08/08 08:57:43;;;;;;;8.85;4.45;;;;;;;;;;4997122;28;20022;-80
2022/08/08 09:00:10;;;;;;;4.72;3.85;;;;;;;;;;4988318;28;20045;-81
2022/08/08 09:02:41;;;;;;;7.80;4.10;;;;;;;;;;5025171;28;20093;-83
2022/08/08 09:05:08;;;;;;;5.35;3.90;;;;;;;;;;5020650;28;20049;-82
2022/08/08 09:07:34;;;;;;;5.03;3.55;;;;;;;;;;5015647;28;20026;-81
2022/08/08 09:10:01;;;;;;;5.43;3.70;;;;;;;;;;5017354;28;20034;-80
2022/08/08 09:12:27;;;;;;;5.55;3.42;;;;;;;;;;5018727;28;20048;-81
2022/08/08 09:14:56;;;;;;;5.68;3.60;;;;;;;;;;5017056;28;20062;-83
2022/08/08 09:17:25;;;;;;;3.88;3.10;;;;;;;;;;5018424;28;20033;-81
2022/08/08 09:19:57;;;;;;;4.95;3.42;;;;;;;;;;5003033;28;20488;-80
2022/08/08 09:22:23;;;;;;;5.70;3.78;;;;;;;;;;5015589;28;20388;-82
2022/08/08 09:24:50;;;;;;;6.43;3.70;;;;;;;;;;5002404;28;20105;-81
2022/08/08 09:27:17;;;;;;;7.38;3.42;;;;;;;;;;5015927;28;20046;-83
2022/08/08 09:30:10;;;;;;;6.10;3.20;;;;;;;;;;5013413;28;20045;-84
2022/08/08 09:32:44;;;;;;;3.85;3.28;;;;;;;;;;5008849;28;20395;-82
2022/08/08 09:35:17;;;;;;;3.97;3.25;;;;;;;;;;5012463;28;20101;-81
2022/08/08 09:37:50;;;;;;;6.13;3.20;;;;;;;;;;5016254;28;20026;-84
2022/08/08 09:40:20;;;;;;;6.47;3.47;;;;;;;;;;5017177;28;20021;-82
2022/08/08 09:43:08;;;;;;;7.50;3.13;;;;;;;;;;5016433;28;20029;-82
2022/08/08 09:45:49;;;;;;;5.20;3.45;;;;;;;;;;5014186;28;20381;-82
2022/08/08 09:48:16;;;;;;;6.53;4.25;;;;;;;;;;5016935;28;20033;-83
2022/08/08 09:50:45;;;;;;;6.78;3.42;;;;;;;;;;5016777;28;20473;-85
2022/08/08 09:53:17;;;;;;;9.90;3.58;;;;;;;;;;5018981;28;20392;-82
2022/08/08 09:55:44;;;;;;;5.20;3.25;;;;;;;;;;5021791;28;20116;-84
2022/08/08 09:58:18;;;;;;;4.45;3.00;;;;;;;;;;5022182;28;20038;-83
2022/08/08 10:00:47;;;;;;;4.05;3.20;;;;;;;;;;5015153;28;20029;-82
2022/08/08 10:03:15;;;;;;;6.53;3.22;;;;;;;;;;5001294;28;20521;-81
2022/08/08 10:05:41;;;;;;;4.18;3.20;;;;;;;;;;5027759;28;20568;-83
2022/08/08 10:08:07;;;;;;;8.10;3.85;;;;;;;;;;5029428;28;20034;-82
2022/08/08 10:10:38;;;;;;;6.40;3.53;;;;;;;;;;5022094;28;20053;-82
2022/08/08 10:13:22;;;;;;;3.83;2.90;;;;;;;;;;5016482;28;20512;-80
2022/08/08 10:15:53;;;;;;;9.77;4.88;;;;;;;;;;4996579;28;20532;-84
2022/08/08 10:18:34;;;;;;;5.43;3.47;;;;;;;;;;5018921;28;20027;-83
2022/08/08 10:21:04;;;;;;;8.70;3.13;;;;;;;;;;5019040;28;20033;-81
2022/08/08 10:23:41;;;;;;;4.47;2.95;;;;;;;;;;5018937;28;20044;-82
2022/08/08 10:26:21;;;;;;;5.65;3.55;;;;;;;;;;5012242;28;20041;-84
2022/08/08 10:28:52;;;;;;;;;;;;;;;;;;5020722;28;20036;-88
2022/08/08 10:34:08;;;;;;;9.18;3.05;;;;;;;;;;5017584;28;20155;-84
2022/08/08 10:36:35;;;;;;;4.20;2.75;;;;;;;;;;5011338;28;20386;-82
2022/08/08 10:39:03;;;;;;;3.60;2.63;;;;;;;;;;5015440;28;20033;-85
2022/08/08 10:41:31;;;;;;;4.47;2.75;;;;;;;;;;5021199;28;20497;-82
2022/08/08 10:43:58;;;;;;;5.78;2.55;;;;;;;;;;5016006;28;20124;-87
2022/08/08 10:46:27;;;;;;;4.85;2.38;;;;;;;;;;5019846;28;20036;-83
2022/08/08 10:48:54;;;;;;;6.93;2.65;;;;;;;;;;5015005;28;20152;-83
2022/08/08 10:51:28;;;;;;;6.25;2.90;;;;;;;;;;5014430;28;20532;-82
2022/08/08 10:53:54;;;;;;;8.93;2.80;;;;;;;;;;5021834;28;20025;-82
2022/08/08 10:56:20;;;;;;;6.40;2.20;;;;;;;;;;5014408;28;20137;-83
2022/08/08 10:58:46;;;;;;;6.72;2.20;;;;;;;;;;5019912;28;20033;-80
2022/08/08 11:01:13;;;;;;;6.35;2.63;;;;;;;;;;5013438;28;20024;-83
2022/08/08 11:03:44;;;;;;;5.82;2.35;;;;;;;;;;5011975;28;20080;-84
2022/08/08 11:06:10;;;;;;;5.68;2.10;;;;;;;;;;5013100;28;20033;-79
2022/08/08 11:08:37;;;;;;;4.30;2.03;;;;;;;;;;5017376;28;20544;-82
2022/08/08 11:11:05;;;;;;;2.55;1.95;;;;;;;;;;5022798;28;20104;-83
2022/08/08 11:13:41;;;;;;;8.00;2.10;;;;;;;;;;5012155;28;20561;-83
2022/08/08 11:16:09;;;;;;;4.20;2.10;;;;;;;;;;5021421;28;20033;-82
2022/08/08 11:18:35;;;;;;;4.35;2.17;;;;;;;;;;5020913;28;20033;-79
2022/08/08 11:21:03;;;;;;;4.43;2.67;;;;;;;;;;5014954;28;20532;-81
2022/08/08 11:23:34;;;;;;;7.40;2.00;;;;;;;;;;5016272;28;20065;-83
2022/08/08 11:26:04;;;;;;;4.45;2.08;;;;;;;;;;4995139;28;20030;-81
2022/08/08 11:28:35;;;;;;;3.42;2.05;;;;;;;;;;5013106;28;20530;-84
2022/08/08 11:31:02;;;;;;;7.30;2.40;;;;;;;;;;5015656;28;20029;-80
2022/08/08 11:33:30;;;;;;;8.88;6.50;;;;;;;;;;5018242;28;20036;-81
2022/08/08 11:35:56;;;;;;;7.78;5.40;;;;;;;;;;5020533;28;20482;-79
2022/08/08 11:38:24;;;;;;;4.38;2.60;;;;;;;;;;5019253;28;20108;-79
2022/08/08 11:40:51;;;;;;;3.25;2.35;;;;;;;;;;5016987;28;20060;-78
2022/08/08 11:43:18;;;;;;;6.28;2.80;;;;;;;;;;5009302;28;20129;-83
2022/08/08 11:45:48;;;;;;;6.28;3.03;;;;;;;;;;5013059;28;20104;-85
2022/08/08 11:48:14;;;;;;;3.45;2.70;;;;;;;;;;5004874;28;20100;-80
2022/08/08 11:50:40;;;;;;;5.32;2.72;;;;;;;;;;5011077;28;20474;-82
2022/08/08 11:53:08;;;;;;;4.57;2.63;;;;;;;;;;5010982;28;20077;-83
2022/08/08 11:55:36;;;;;;;6.07;2.50;;;;;;;;;;5011652;28;20026;-81
2022/08/08 11:58:11;;;;;;;3.72;2.70;;;;;;;;;;5008368;28;20041;-81
2022/08/08 12:00:51;;;;;;;4.38;2.72;;;;;;;;;;5007742;28;20029;-80
2022/08/08 12:03:24;;;;;;;3.92;2.50;;;;;;;;;;5006498;28;20033;-80
2022/08/08 12:05:51;;;;;;;5.32;2.47;;;;;;;;;;5006611;28;20028;-81
2022/08/08 12:08:29;;;;;;;3.92;2.72;;;;;;;;;;5016042;28;20034;-80
2022/08/08 12:10:59;;;;;;;10.52;3.50;;;;;;;;;;5014694;28;20057;-79
2022/08/08 12:13:25;;;;;;;5.55;3.05;;;;;;;;;;5004290;28;20379;-80
2022/08/08 12:15:51;;;;;;;3.97;2.63;;;;;;;;;;5003601;28;20057;-83
2022/08/08 12:18:20;;;;;;;5.05;3.03;;;;;;;;;;5018340;28;20076;-82
2022/08/08 12:20:45;;;;;;;9.60;3.03;;;;;;;;;;5008528;28;20036;-79
2022/08/08 12:23:11;;;;;;;4.93;2.85;;;;;;;;;;5012595;28;20052;-82
2022/08/08 12:25:37;;;;;;;5.18;3.33;;;;;;;;;;4998140;28;20029;-82
2022/08/08 12:28:15;;;;;;;4.85;2.65;;;;;;;;;;5013033;28;20025;-80
2022/08/08 12:30:43;;;;;;;4.90;3.03;;;;;;;;;;5013137;28;20026;-80
2022/08/08 12:33:26;;;;;;;3.22;2.60;;;;;;;;;;5002637;28;20096;-81
2022/08/08 12:35:52;;;;;;;4.35;2.78;;;;;;;;;;4995258;28;20063;-83
2022/08/08 12:38:18;;;;;;;6.45;3.00;;;;;;;;;;5013383;28;20030;-80
2022/08/08 12:40:45;;;;;;;4.63;3.15;;;;;;;;;;5019992;28;20036;-80
2022/08/08 12:43:12;;;;;;;9.35;2.60;;;;;;;;;;5019726;28;20382;-81
2022/08/08 12:45:42;;;;;;;4.47;3.05;;;;;;;;;;5011397;28;20037;-82
2022/08/08 12:48:22;;;;;;;4.28;2.58;;;;;;;;;;5019996;28;20037;-81
2022/08/08 12:50:57;;;;;;;5.13;2.70;;;;;;;;;;5008293;28;20105;-78
2022/08/08 12:53:31;;;;;;;3.20;2.45;;;;;;;;;;5014694;28;20109;-79
2022/08/08 12:56:08;;;;;;;2.97;2.17;;;;;;;;;;5007375;28;20100;-81
2022/08/08 12:58:44;;;;;;;6.53;2.60;;;;;;;;;;5015384;28;20374;-79
2022/08/08 13:01:10;;;;;;;3.55;2.20;;;;;;;;;;4987821;28;20025;-79
2022/08/08 13:03:43;;;;;;;3.10;2.10;;;;;;;;;;5008481;28;20026;-84
2022/08/08 13:06:13;;;;;;;6.38;2.45;;;;;;;;;;5005327;28;20565;-80
2022/08/08 13:08:44;;;;;;;3.15;2.50;;;;;;;;;;5008035;28;20458;-82
2022/08/08 13:11:38;;;;;;;4.25;2.67;;;;;;;;;;5003611;28;20036;-83
2022/08/08 13:14:14;;;;;;;15.65;12.07;;;;;;;;;;5011121;28;20037;-81
2022/08/08 13:16:41;;;;;;;10.18;9.15;;;;;;;;;;5011342;28;20029;-81
2022/08/08 13:19:09;;;;;;;7.82;3.00;;;;;;;;;;5002817;28;20038;-83
2022/08/08 13:21:43;;;;;;;11.02;2.65;;;;;;;;;;5000773;28;20030;-82
2022/08/08 13:24:08;;;;;;;6.55;2.38;;;;;;;;;;4995173;28;20059;-84
2022/08/08 13:26:34;;;;;;;4.65;2.40;;;;;;;;;;5015328;28;20026;-81
2022/08/08 13:29:08;;;;;;;4.47;2.13;;;;;;;;;;5016121;28;20025;-81
2022/08/08 13:31:34;;;;;;;3.97;2.00;;;;;;;;;;5015012;28;20109;-83
2022/08/08 13:34:01;;;;;;;3.92;2.30;;;;;;;;;;5024428;28;20109;-82
2022/08/08 13:36:27;;;;;;;5.85;2.40;;;;;;;;;;5020420;28;20025;-81
2022/08/08 13:38:53;;;;;;;3.20;2.40;;;;;;;;;;5006338;28;20026;-84
2022/08/08 13:41:20;;;;;;;4.70;3.13;;;;;;;;;;5020935;28;20033;-81
2022/08/08 13:43:46;;;;;;;5.22;2.35;;;;;;;;;;5015176;28;20442;-82
2022/08/08 13:46:14;;;;;;;3.83;2.00;;;;;;;;;;5011514;28;20050;-83
2022/08/08 13:48:47;;;;;;;2.28;1.90;;;;;;;;;;4993838;28;20036;-82
2022/08/08 13:51:14;;;;;;;4.75;2.15;;;;;;;;;;5016440;28;20057;-82
2022/08/08 13:53:49;;;;;;;8.05;7.22;;;;;;;;;;5021469;28;20041;-86
2022/08/08 13:56:15;;;;;;;7.78;6.55;;;;;;;;;;5013532;28;20033;-82
2022/08/08 13:58:48;;;;;;;6.07;2.20;;;;;;;;;;5010122;28;20036;-84
2022/08/08 14:01:16;;;;;;;3.63;2.25;;;;;;;;;;5014043;28;20026;-84
2022/08/08 14:03:52;;;;;;;5.97;2.53;;;;;;;;;;5016687;28;20048;-83
2022/08/08 14:06:18;;;;;;;4.35;2.63;;;;;;;;;;5010254;28;20436;-83
2022/08/08 14:08:45;;;;;;;2.78;2.10;;;;;;;;;;5018052;28;20108;-83
2022/08/08 14:11:22;;;;;;;3.47;2.28;;;;;;;;;;5019426;28;20034;-82
2022/08/08 14:13:48;;;;;;;2.70;2.00;;;;;;;;;;5012711;28;20108;-86
2022/08/08 14:16:15;;;;;;;4.45;1.98;;;;;;;;;;5015717;28;20026;-82
2022/08/08 14:18:50;;;;;;;4.07;2.60;;;;;;;;;;5013008;28;20060;-83
2022/08/08 14:21:15;;;;;;;3.47;2.05;;;;;;;;;;5014501;28;20088;-82
2022/08/08 14:23:44;;;;;;;7.38;2.58;;;;;;;;;;5011123;28;20056;-84
2022/08/08 14:26:44;;;;;;;5.60;2.60;;;;;;;;;;5013565;28;20470;-81
2022/08/08 14:29:29;;;;;;;6.22;2.55;;;;;;;;;;5000992;28;20056;-82
2022/08/08 14:31:55;;;;;;;3.20;2.13;;;;;;;;;;5013995;28;20069;-82
2022/08/08 14:34:20;;;;;;;5.38;2.28;;;;;;;;;;5018939;28;20030;-82
2022/08/08 14:36:48;;;;;;;6.30;2.80;;;;;;;;;;5010068;28;20026;-81
2022/08/08 14:39:18;;;;;;;3.63;1.98;;;;;;;;;;5007868;28;20045;-81
2022/08/08 14:41:44;;;;;;;3.08;2.10;;;;;;;;;;5008141;28;20026;-82
2022/08/08 14:44:11;;;;;;;6.32;2.45;;;;;;;;;;5009018;28;20056;-84
2022/08/08 14:46:37;;;;;;;4.03;1.92;;;;;;;;;;5005301;28;20026;-84
2022/08/08 14:49:11;;;;;;;3.25;2.28;;;;;;;;;;5014187;28;20084;-83
2022/08/08 14:51:39;;;;;;;4.28;2.40;;;;;;;;;;5005740;28;20034;-81
2022/08/08 14:54:05;;;;;;;2.60;1.95;;;;;;;;;;5011855;28;20030;-85
2022/08/08 14:56:30;;;;;;;6.97;2.60;;;;;;;;;;5006139;28;20022;-84
2022/08/08 14:58:56;;;;;;;3.03;2.03;;;;;;;;;;5013767;28;20041;-84
2022/08/08 15:01:30;;;;;;;3.53;1.92;;;;;;;;;;4993998;28;20021;-81
2022/08/08 15:03:55;;;;;;;5.25;2.15;;;;;;;;;;5014873;28;20058;-82
2022/08/08 15:06:21;;;;;;;3.22;2.00;;;;;;;;;;5007137;28;20112;-82
2022/08/08 15:08:46;;;;;;;5.13;2.85;;;;;;;;;;5013366;28;20029;-85
2022/08/08 15:11:12;;;;;;;4.32;2.28;;;;;;;;;;5018077;28;20030;-83
2022/08/08 15:13:41;;;;;;;4.35;2.58;;;;;;;;;;5013673;28;20032;-84
2022/08/08 15:16:08;;;;;;;5.22;2.60;;;;;;;;;;5018584;28;20037;-82
2022/08/08 15:18:35;;;;;;;3.75;2.10;;;;;;;;;;5015843;28;20847;-83
2022/08/08 15:21:00;;;;;;;3.30;2.72;;;;;;;;;;5008462;28;20026;-82
2022/08/08 15:23:26;;;;;;;4.13;2.13;;;;;;;;;;5007312;28;20382;-81